Time;durP1;ratioP1;P1;durP2;ratioP2;P2;SDS_P1;SDS_P2;PMS_P1;PMS_P2;Temp;Humidity;BMP_temperature;BMP_pressure;BME280_temperature;BME280_humidity;BME280_pressure;Samples;Min_cycle;Max_cycle;Signal;HPM_P1;HPM_P2
2021/11/07 00:00:30;;;;;;;17.27;9.10;;;;;;;6.20;100.00;98191.41;5116189;28;20047;-83
2021/11/07 00:05:33;;;;;;;20.30;9.18;;;;;;;6.27;100.00;98180.38;5117231;28;20055;-81
2021/11/07 00:08:29;;;;;;;17.88;9.40;;;;;;;6.30;100.00;98176.34;5116704;28;20457;-83
2021/11/07 00:10:59;;;;;;;19.15;9.40;;;;;;;6.27;100.00;98170.41;5117265;28;20047;-82
2021/11/07 00:13:27;;;;;;;19.23;10.20;;;;;;;6.36;100.00;98156.41;5100389;28;20043;-80
2021/11/07 00:15:59;;;;;;;16.77;9.65;;;;;;;6.40;100.00;98155.56;5100830;28;20077;-81
2021/11/07 00:18:32;;;;;;;19.65;10.20;;;;;;;6.38;100.00;98149.69;5113616;28;20048;-81
2021/11/07 00:21:08;;;;;;;17.88;9.70;;;;;;;6.29;100.00;98151.34;5111829;28;20047;-81
2021/11/07 00:26:46;;;;;;;18.05;9.88;;;;;;;6.33;100.00;98143.50;5110784;28;20498;-80
2021/11/07 00:29:35;;;;;;;18.55;11.00;;;;;;;6.38;100.00;98148.88;5110140;28;20451;-80
2021/11/07 00:32:22;;;;;;;21.10;10.40;;;;;;;6.46;100.00;98137.53;5123121;28;20055;-81
2021/11/07 00:37:41;;;;;;;22.30;11.80;;;;;;;6.49;100.00;98131.63;5118581;28;20131;-82
2021/11/07 00:42:44;;;;;;;23.20;11.75;;;;;;;6.48;100.00;98113.88;5114026;28;20445;-81
2021/11/07 00:47:55;;;;;;;18.35;10.60;;;;;;;6.65;100.00;98119.72;5114694;28;20108;-82
2021/11/07 00:50:26;;;;;;;22.75;10.77;;;;;;;6.74;100.00;98120.72;5095855;28;20172;-82
2021/11/07 00:53:11;;;;;;;23.23;12.82;;;;;;;6.65;100.00;98125.09;5115564;28;20048;-82
2021/11/07 00:55:44;;;;;;;21.42;10.98;;;;;;;6.65;100.00;98122.41;5096639;28;20073;-82
2021/11/07 00:58:15;;;;;;;21.33;10.50;;;;;;;6.75;100.00;98114.25;5097790;28;20100;-81
2021/11/07 01:01:01;;;;;;;20.20;10.82;;;;;;;6.81;100.00;98113.94;5084892;28;20119;-82
2021/11/07 01:03:28;;;;;;;;;;;;;;;6.75;100.00;98106.19;5083716;28;20071;-82
2021/11/07 01:05:57;;;;;;;24.17;11.52;;;;;;;6.72;100.00;98091.41;5097991;28;19920;-80
2021/11/07 01:08:24;;;;;;;21.40;10.95;;;;;;;6.67;100.00;98090.63;5097084;28;20321;-81
2021/11/07 01:10:50;;;;;;;20.00;11.25;;;;;;;6.66;100.00;98083.63;5079129;28;20044;-81
2021/11/07 01:13:17;;;;;;;21.30;11.88;;;;;;;6.68;100.00;98076.13;5096121;28;20495;-81
2021/11/07 01:15:44;;;;;;;24.10;11.45;;;;;;;6.74;100.00;98093.81;5095415;28;20184;-80
2021/11/07 01:18:11;;;;;;;22.85;12.05;;;;;;;6.81;100.00;98092.41;5095424;28;20102;-80
2021/11/07 01:20:37;;;;;;;23.20;12.70;;;;;;;6.84;100.00;98085.66;5076745;28;20048;-79
2021/11/07 01:25:43;;;;;;;18.95;11.00;;;;;;;6.94;100.00;98063.28;5100120;28;20504;-79
2021/11/07 01:28:10;;;;;;;20.50;11.02;;;;;;;6.94;100.00;98066.78;5103066;28;20105;-82
2021/11/07 01:30:47;;;;;;;21.33;10.73;;;;;;;6.89;100.00;98054.16;5098292;28;20052;-81
2021/11/07 01:33:20;;;;;;;18.10;10.68;;;;;;;6.94;100.00;98047.13;5095309;28;20052;-79
2021/11/07 01:38:44;;;;;;;20.30;10.48;;;;;;;7.07;100.00;98044.59;5093414;28;20668;-81
2021/11/07 01:43:43;;;;;;;20.00;10.82;;;;;;;7.13;100.00;98035.41;5094242;28;20094;-81
2021/11/07 01:48:50;;;;;;;18.67;10.73;;;;;;;7.19;100.00;97998.47;5093124;28;20048;-79
2021/11/07 01:51:17;;;;;;;20.30;10.02;;;;;;;7.13;100.00;97996.88;5101410;28;20027;-79
2021/11/07 01:53:45;;;;;;;19.67;10.50;;;;;;;7.15;100.00;97995.53;5081449;28;20135;-81
2021/11/07 01:56:14;;;;;;;19.90;9.77;;;;;;;7.19;100.00;97974.22;5094949;28;20044;-79
2021/11/07 01:58:43;;;;;;;16.05;8.88;;;;;;;7.23;100.00;97969.88;5082259;28;20040;-84
2021/11/07 02:01:10;;;;;;;15.98;8.43;;;;;;;7.23;100.00;97969.88;5078987;28;20062;-81
2021/11/07 02:03:37;;;;;;;14.13;8.13;;;;;;;7.26;100.00;97975.50;5101817;28;20450;-81
2021/11/07 02:06:04;;;;;;;16.60;8.70;;;;;;;7.26;100.00;97985.47;5079423;28;20549;-80
2021/11/07 02:08:31;;;;;;;19.20;8.77;;;;;;;7.27;100.00;97968.22;5077781;28;20143;-81
2021/11/07 02:13:30;;;;;;;16.52;8.63;;;;;;;7.25;100.00;97957.72;5016454;28;20050;-81
2021/11/07 02:15:57;;;;;;;14.82;7.70;;;;;;;7.25;100.00;97970.41;5018110;28;20077;-81
2021/11/07 02:18:24;;;;;;;12.93;7.85;;;;;;;7.27;100.00;97963.66;5017350;28;20077;-83
2021/11/07 02:20:53;;;;;;;13.88;8.05;;;;;;;7.24;100.00;97975.00;5016493;28;20050;-81
2021/11/07 02:23:21;;;;;;;15.98;8.15;;;;;;;7.30;100.00;97962.28;5036379;28;20080;-81
2021/11/07 02:25:50;;;;;;;14.52;7.80;;;;;;;7.27;100.00;97970.91;5035620;28;20052;-81
2021/11/07 02:28:29;;;;;;;14.27;6.93;;;;;;;7.25;100.00;97973.09;5037675;28;20103;-80
2021/11/07 02:30:57;;;;;;;16.20;7.80;;;;;;;7.29;100.00;97964.16;5036312;28;20053;-81
2021/11/07 02:33:24;;;;;;;14.43;7.90;;;;;;;7.30;100.00;97968.44;5035513;28;20100;-82
2021/11/07 02:35:51;;;;;;;14.45;7.70;;;;;;;7.35;100.00;97971.09;5035084;28;20109;-82
2021/11/07 02:38:18;;;;;;;17.00;7.78;;;;;;;7.31;100.00;97978.13;5036461;28;20073;-82
2021/11/07 02:40:45;;;;;;;14.43;7.30;;;;;;;7.32;100.00;97974.38;5035250;28;20167;-81
2021/11/07 02:43:11;;;;;;;15.10;7.03;;;;;;;7.36;100.00;97964.63;5018393;28;20490;-81
2021/11/07 02:45:38;;;;;;;13.32;7.60;;;;;;;7.36;100.00;97951.16;5018403;28;20056;-81
2021/11/07 02:48:05;;;;;;;12.23;6.60;;;;;;;7.41;100.00;97948.41;5015668;28;20085;-81
2021/11/07 02:50:32;;;;;;;11.65;6.18;;;;;;;7.42;100.00;97946.53;5032996;28;20057;-81
2021/11/07 02:52:59;;;;;;;13.40;6.70;;;;;;;7.40;100.00;97941.44;5015083;28;20050;-81
2021/11/07 02:55:26;;;;;;;10.05;6.03;;;;;;;7.42;100.00;97947.31;5033591;28;20281;-80
2021/11/07 02:57:57;;;;;;;12.32;6.07;;;;;;;7.82;100.00;97937.94;5034686;28;20087;-81
2021/11/07 03:00:25;;;;;;;10.25;6.07;;;;;;;7.76;100.00;97922.13;5032746;28;20493;-81
2021/11/07 03:02:52;;;;;;;13.68;6.32;;;;;;;7.78;100.00;97920.75;5016165;28;20053;-81
2021/11/07 03:05:19;;;;;;;11.25;6.22;;;;;;;7.78;100.00;97912.66;5017043;28;20111;-81
2021/11/07 03:07:46;;;;;;;10.82;5.93;;;;;;;7.76;100.00;97911.34;5016628;28;20100;-81
2021/11/07 03:10:15;;;;;;;11.52;6.10;;;;;;;7.75;100.00;97897.06;5016947;28;20107;-81
2021/11/07 03:12:42;;;;;;;12.18;5.80;;;;;;;7.39;100.00;97895.91;5041410;28;20150;-80
2021/11/07 03:15:12;;;;;;;9.40;5.13;;;;;;;7.45;100.00;97900.97;5021612;28;20096;-81
2021/11/07 03:17:39;;;;;;;10.25;5.55;;;;;;;7.42;100.00;97904.22;5038607;28;20349;-80
2021/11/07 03:20:10;;;;;;;11.48;5.60;;;;;;;7.52;100.00;97914.88;5036908;28;20057;-83
2021/11/07 03:22:37;;;;;;;11.13;4.95;;;;;;;7.56;100.00;97901.66;5033154;28;20049;-81
2021/11/07 03:25:07;;;;;;;9.00;4.50;;;;;;;7.71;100.00;97892.56;5034056;28;20063;-82
2021/11/07 03:27:46;;;;;;;8.85;4.47;;;;;;;7.82;100.00;97891.34;5016313;28;20064;-85
2021/11/07 03:30:44;;;;;;;9.65;4.70;;;;;;;7.67;100.00;97875.34;5033035;28;20140;-82
2021/11/07 03:33:28;;;;;;;12.70;5.60;;;;;;;7.62;100.00;97897.78;5034740;28;20057;-83
2021/11/07 03:36:00;;;;;;;;;;;;;;;7.67;100.00;97911.19;5035097;28;20056;-82
2021/11/07 03:38:27;;;;;;;10.10;5.00;;;;;;;7.67;100.00;97902.28;5034658;28;19967;-83
2021/11/07 03:40:56;;;;;;;9.70;4.97;;;;;;;7.65;100.00;97891.00;5033228;28;20068;-84
2021/11/07 03:43:27;;;;;;;14.82;5.20;;;;;;;7.72;100.00;97892.25;5016801;28;20060;-84
2021/11/07 03:45:57;;;;;;;9.48;5.32;;;;;;;7.89;100.00;97862.13;5017193;28;20049;-83
2021/11/07 03:48:24;;;;;;;9.82;5.00;;;;;;;7.98;100.00;97866.56;5034514;28;20076;-83
2021/11/07 03:50:51;;;;;;;9.27;5.25;;;;;;;7.93;100.00;97882.81;5032724;28;20080;-83
2021/11/07 03:53:18;;;;;;;10.05;5.78;;;;;;;7.80;100.00;97877.31;5033472;28;20053;-84
2021/11/07 03:55:45;;;;;;;10.23;5.40;;;;;;;7.56;100.00;97872.00;5035025;28;20060;-83
2021/11/07 03:58:11;;;;;;;12.27;5.00;;;;;;;7.48;100.00;97869.97;5017083;28;20080;-82
2021/11/07 04:00:38;;;;;;;9.48;4.47;;;;;;;7.50;100.00;97881.25;5015909;28;20049;-82
2021/11/07 04:03:05;;;;;;;11.57;5.55;;;;;;;7.44;100.00;97867.03;5030605;28;20053;-83
2021/11/07 04:05:34;;;;;;;8.60;4.82;;;;;;;7.32;100.00;97861.25;5013919;28;20042;-84
2021/11/07 04:08:01;;;;;;;10.95;5.20;;;;;;;7.28;100.00;97848.66;5031175;28;20053;-82
2021/11/07 04:10:29;;;;;;;9.70;5.07;;;;;;;7.25;100.00;97858.09;5014630;28;20050;-81
2021/11/07 04:12:56;;;;;;;9.65;4.85;;;;;;;7.15;100.00;97839.38;5032818;28;20045;-82
2021/11/07 04:15:25;;;;;;;10.88;5.88;;;;;;;7.18;100.00;97844.19;5014815;28;20312;-81
2021/11/07 04:17:57;;;;;;;10.82;5.53;;;;;;;7.18;100.00;97844.19;5032422;28;20053;-81
2021/11/07 04:20:23;;;;;;;9.52;5.40;;;;;;;7.14;100.00;97828.91;5018974;28;20469;-83
2021/11/07 04:22:50;;;;;;;12.63;5.78;;;;;;;7.07;100.00;97842.69;5021322;28;20080;-82
2021/11/07 04:25:17;;;;;;;13.40;5.95;;;;;;;6.99;100.00;97818.31;5019700;28;20052;-80
2021/11/07 04:27:44;;;;;;;13.45;6.13;;;;;;;6.97;100.00;97834.75;5034617;28;20057;-79
2021/11/07 04:30:12;;;;;;;11.05;5.88;;;;;;;7.04;100.00;97835.22;5036142;28;20049;-78
2021/11/07 04:32:38;;;;;;;11.98;6.07;;;;;;;6.97;100.00;97834.75;5035860;28;20476;-80
2021/11/07 04:35:07;;;;;;;11.63;6.60;;;;;;;6.90;100.00;97829.72;5036562;28;20067;-82
2021/11/07 04:37:38;;;;;;;12.10;6.00;;;;;;;6.83;100.00;97831.97;5034460;28;20107;-80
2021/11/07 04:40:06;;;;;;;12.35;6.43;;;;;;;6.82;100.00;97827.66;5034332;28;20053;-81
2021/11/07 04:42:33;;;;;;;11.68;6.05;;;;;;;6.78;100.00;97817.75;5032494;28;20045;-81
2021/11/07 04:44:59;;;;;;;13.07;6.95;;;;;;;6.77;100.00;97821.50;5031927;28;20107;-80
2021/11/07 04:47:26;;;;;;;11.48;5.72;;;;;;;6.70;100.00;97810.31;5033708;28;20057;-80
2021/11/07 04:49:54;;;;;;;10.27;5.85;;;;;;;6.70;100.00;97805.72;5016605;28;20061;-79
2021/11/07 04:52:21;;;;;;;12.57;6.72;;;;;;;6.85;100.00;97810.13;5036547;28;20061;-80
2021/11/07 04:54:48;;;;;;;14.75;6.93;;;;;;;6.82;100.00;97806.13;5038024;28;20053;-81
2021/11/07 04:57:15;;;;;;;12.40;6.60;;;;;;;6.74;100.00;97784.41;5038227;28;20084;-81
2021/11/07 04:59:41;;;;;;;12.45;6.50;;;;;;;6.81;100.00;97795.66;5034573;28;20123;-81
2021/11/07 05:02:08;;;;;;;12.77;6.47;;;;;;;6.77;100.00;97791.94;5017994;28;20096;-81
2021/11/07 05:04:36;;;;;;;11.05;6.43;;;;;;;6.76;100.00;97787.66;5036184;28;20073;-81
2021/11/07 05:07:03;;;;;;;11.35;6.30;;;;;;;6.79;100.00;97779.78;5036218;28;20053;-81
2021/11/07 05:09:30;;;;;;;11.68;5.88;;;;;;;6.83;100.00;97782.72;5035602;28;20049;-82
2021/11/07 05:11:57;;;;;;;13.73;6.68;;;;;;;6.76;100.00;97774.19;5033161;28;20081;-81
2021/11/07 05:14:24;;;;;;;11.20;6.00;;;;;;;6.82;100.00;97773.03;5030854;28;20123;-80
2021/11/07 05:16:50;;;;;;;14.25;6.53;;;;;;;6.72;100.00;97759.69;5017028;28;20080;-79
2021/11/07 05:19:17;;;;;;;13.77;6.57;;;;;;;6.75;100.00;97775.28;5029906;28;20080;-80
2021/11/07 05:21:44;;;;;;;13.35;6.65;;;;;;;6.84;100.00;97768.16;5043642;28;20112;-80
2021/11/07 05:24:10;;;;;;;11.52;6.43;;;;;;;6.70;100.00;97748.44;5035860;28;20095;-79
2021/11/07 05:26:37;;;;;;;12.75;6.05;;;;;;;6.75;100.00;97756.44;5054207;28;20079;-81
2021/11/07 05:29:05;;;;;;;13.60;6.82;;;;;;;6.64;100.00;97736.91;5036467;28;20048;-78
2021/11/07 05:31:32;;;;;;;13.15;6.70;;;;;;;6.64;100.00;97731.53;5049181;28;20148;-81
2021/11/07 05:33:59;;;;;;;13.50;6.53;;;;;;;6.77;100.00;97711.22;5053972;28;20102;-81
2021/11/07 05:36:26;;;;;;;11.55;6.53;;;;;;;6.59;100.00;97709.28;5053932;28;20060;-81
2021/11/07 05:38:53;;;;;;;12.10;6.57;;;;;;;6.62;100.00;97708.72;5036272;28;20200;-82
2021/11/07 05:41:19;;;;;;;12.32;6.60;;;;;;;6.61;100.00;97701.72;5054706;28;20044;-82
2021/11/07 05:43:46;;;;;;;13.63;7.13;;;;;;;6.52;100.00;97701.56;5036836;28;20240;-81
2021/11/07 05:46:12;;;;;;;13.18;6.60;;;;;;;6.57;100.00;97681.88;5054909;28;20068;-82
2021/11/07 05:48:39;;;;;;;12.40;6.80;;;;;;;6.55;100.00;97686.75;5054384;28;20049;-81
2021/11/07 05:51:07;;;;;;;13.20;6.43;;;;;;;6.47;100.00;97674.75;5036888;28;20049;-81
2021/11/07 05:53:34;;;;;;;12.05;6.85;;;;;;;6.48;100.00;97695.16;5035514;28;20413;-81
2021/11/07 05:56:01;;;;;;;13.93;6.85;;;;;;;6.45;100.00;97679.63;5036259;28;20045;-81
2021/11/07 05:58:28;;;;;;;13.02;6.40;;;;;;;6.52;100.00;97687.31;5042530;28;20057;-81
2021/11/07 06:00:55;;;;;;;13.75;6.85;;;;;;;6.49;100.00;97667.19;5041561;28;20048;-81
2021/11/07 06:03:23;;;;;;;12.40;6.70;;;;;;;6.49;100.00;97661.00;5043730;28;20060;-81
2021/11/07 06:05:49;;;;;;;9.70;6.20;;;;;;;6.56;100.00;97674.88;5015122;28;20049;-80
2021/11/07 06:08:16;;;;;;;14.18;6.97;;;;;;;6.60;100.00;97657.09;5030684;28;20057;-81
2021/11/07 06:10:42;;;;;;;13.95;6.70;;;;;;;6.62;100.00;97646.84;5011950;28;20069;-81
2021/11/07 06:13:11;;;;;;;11.63;6.57;;;;;;;6.65;100.00;97646.28;5012966;28;20057;-80
2021/11/07 06:15:38;;;;;;;12.38;6.05;;;;;;;6.72;100.00;97654.78;5037146;28;20629;-82
2021/11/07 06:18:05;;;;;;;11.10;5.43;;;;;;;6.88;100.00;97648.91;5053504;28;20079;-85
2021/11/07 06:20:41;;;;;;;9.50;5.68;;;;;;;6.87;100.00;97639.25;5043034;28;20075;-85
2021/11/07 06:23:10;;;;;;;9.23;5.00;;;;;;;7.27;100.00;97640.53;5019009;28;20053;-84
2021/11/07 06:25:37;;;;;;;9.70;5.28;;;;;;;7.14;100.00;97651.25;5021958;28;20152;-84
2021/11/07 06:28:05;;;;;;;9.25;5.10;;;;;;;7.17;100.00;97632.63;5039636;28;20056;-85
2021/11/07 06:30:33;;;;;;;10.95;5.55;;;;;;;7.13;100.00;97653.13;5047290;28;20200;-82
2021/11/07 06:33:00;;;;;;;10.02;4.93;;;;;;;7.41;100.00;97649.44;5022748;28;20068;-82
2021/11/07 06:35:27;;;;;;;8.68;4.88;;;;;;;7.52;100.00;97634.75;5035922;28;20049;-81
2021/11/07 06:37:55;;;;;;;10.52;5.32;;;;;;;7.57;100.00;97635.72;5034442;28;20049;-80
2021/11/07 06:40:22;;;;;;;9.13;5.28;;;;;;;7.53;100.00;97643.63;5018553;28;20080;-81
2021/11/07 06:42:51;;;;;;;10.10;5.63;;;;;;;7.63;100.00;97643.44;5031176;28;20060;-82
2021/11/07 06:45:18;;;;;;;9.15;5.55;;;;;;;7.62;100.00;97632.94;5032151;28;20049;-84
2021/11/07 06:47:45;;;;;;;10.27;6.20;;;;;;;7.22;100.00;97631.72;5035375;28;20677;-83
2021/11/07 06:50:13;;;;;;;11.35;5.90;;;;;;;7.11;100.00;97633.78;5037522;28;20057;-83
2021/11/07 06:52:41;;;;;;;10.60;5.70;;;;;;;7.06;100.00;97633.84;5036898;28;20057;-83
2021/11/07 06:55:09;;;;;;;10.18;5.63;;;;;;;7.07;100.00;97629.28;5033016;28;20046;-82
2021/11/07 06:57:37;;;;;;;12.77;6.35;;;;;;;7.16;100.00;97630.19;5034187;28;20092;-82
2021/11/07 07:00:11;;;;;;;9.40;5.80;;;;;;;7.20;100.00;97625.84;5031165;28;20053;-81
2021/11/07 07:02:39;;;;;;;10.00;6.30;;;;;;;7.21;100.00;97630.94;5033799;28;20519;-83
2021/11/07 07:05:07;;;;;;;10.25;6.15;;;;;;;7.26;100.00;97635.44;5040127;28;20054;-81
2021/11/07 07:07:37;;;;;;;13.60;6.32;;;;;;;7.23;100.00;97649.47;5036315;28;20049;-82
2021/11/07 07:10:10;;;;;;;12.20;6.43;;;;;;;7.28;100.00;97627.84;5034324;28;20045;-81
2021/11/07 07:12:45;;;;;;;12.77;6.40;;;;;;;7.21;100.00;97640.91;5035913;28;20064;-84
2021/11/07 07:15:18;;;;;;;12.60;6.45;;;;;;;7.23;100.00;97619.84;5015949;28;20135;-83
2021/11/07 07:18:04;;;;;;;11.45;6.22;;;;;;;7.26;100.00;97628.16;5034307;28;20058;-83
2021/11/07 07:20:45;;;;;;;12.70;6.72;;;;;;;7.14;100.00;97635.09;5031349;28;20049;-82
2021/11/07 07:23:34;;;;;;;11.43;5.63;;;;;;;7.26;100.00;97621.97;5029904;28;20057;-82
2021/11/07 07:29:52;;;;;;;12.88;6.63;;;;;;;7.34;100.00;97635.56;5011826;28;20055;-83
2021/11/07 07:32:09;;;;;;;12.80;6.28;;;;;;;7.09;100.00;97638.66;5035375;28;20057;-82
2021/11/07 07:34:37;;;;;;;12.60;7.40;;;;;;;6.83;100.00;97658.94;5036471;28;20055;-83
2021/11/07 07:37:04;;;;;;;14.57;7.85;;;;;;;6.62;100.00;97652.22;5036368;28;20119;-82
2021/11/07 07:39:31;;;;;;;12.75;7.38;;;;;;;6.55;100.00;97644.53;5019538;28;20064;-81
2021/11/07 07:41:57;;;;;;;12.35;7.15;;;;;;;6.42;100.00;97647.13;5035406;28;20049;-79
2021/11/07 07:44:24;;;;;;;17.02;8.55;;;;;;;6.36;100.00;97657.13;5040725;28;20066;-80
2021/11/07 07:46:51;;;;;;;15.02;8.70;;;;;;;6.31;100.00;97656.38;5015911;28;20106;-82
2021/11/07 07:49:19;;;;;;;13.50;8.88;;;;;;;6.26;100.00;97674.19;5016258;28;20061;-84
2021/11/07 07:51:55;;;;;;;13.80;8.35;;;;;;;6.16;100.00;97666.22;5031474;28;20057;-85
2021/11/07 07:54:25;;;;;;;17.77;9.38;;;;;;;6.24;100.00;97667.47;5029814;28;20125;-86
2021/11/07 07:57:04;;;;;;;19.40;9.88;;;;;;;6.07;100.00;97640.25;5030271;28;20402;-85
2021/11/07 07:59:33;;;;;;;16.30;9.82;;;;;;;6.09;100.00;97655.00;5028382;28;20061;-86
2021/11/07 08:02:22;;;;;;;17.30;8.93;;;;;;;5.97;100.00;97632.28;5050353;28;20049;-86
2021/11/07 08:05:11;;;;;;;15.77;9.50;;;;;;;5.88;100.00;97621.38;5036789;28;20041;-87
2021/11/07 08:08:03;;;;;;;16.77;9.90;;;;;;;5.84;100.00;97635.63;5037446;28;20063;-84
2021/11/07 08:10:35;;;;;;;17.95;9.50;;;;;;;6.02;100.00;97648.34;5002944;28;20061;-85
2021/11/07 08:13:02;;;;;;;16.38;9.23;;;;;;;6.00;100.00;97632.53;5032003;28;20125;-83
2021/11/07 08:15:29;;;;;;;17.27;9.95;;;;;;;6.07;100.00;97626.81;5017375;28;20140;-82
2021/11/07 08:17:59;;;;;;;15.90;9.30;;;;;;;6.15;100.00;97636.94;5035506;28;20061;-86
2021/11/07 08:20:44;;;;;;;18.10;9.10;;;;;;;6.08;100.00;97623.03;5034073;28;20061;-86
2021/11/07 08:26:42;;;;;;;16.88;8.80;;;;;;;5.97;100.00;97582.06;5032498;28;20045;-87
2021/11/07 08:29:14;;;;;;;15.23;9.13;;;;;;;5.94;100.00;97563.81;5054326;22;20052;-81
2021/11/07 08:31:59;;;;;;;15.15;8.70;;;;;;;6.02;100.00;97568.56;5088235;28;20040;-82
2021/11/07 08:34:29;;;;;;;15.90;9.05;;;;;;;6.32;100.00;97596.16;5070063;28;20051;-81
2021/11/07 08:37:04;;;;;;;13.82;8.00;;;;;;;6.39;100.00;97612.72;5088841;28;20147;-81
2021/11/07 08:39:48;;;;;;;13.10;8.43;;;;;;;6.47;100.00;97615.59;5076425;28;20071;-80
2021/11/07 08:42:18;;;;;;;12.95;7.22;;;;;;;6.45;100.00;97596.25;5071570;28;20056;-81
2021/11/07 09:02:27;;;;;;;11.90;6.63;;;;;;;6.61;100.00;97604.91;5080193;28;20233;-80
2021/11/07 09:09:14;;;;;;;10.95;6.50;;;;;;;6.60;100.00;97614.06;5072777;28;20052;-77
2021/11/07 09:11:52;;;;;;;10.55;5.50;;;;;;;6.56;100.00;97602.28;5071111;28;20086;-80
2021/11/07 09:14:22;;;;;;;9.63;5.60;;;;;;;6.65;100.00;97601.34;5054614;28;20058;-80
2021/11/07 09:16:51;;;;;;;10.63;5.50;;;;;;;6.68;100.00;97600.78;5073255;28;20056;-79
2021/11/07 09:19:21;;;;;;;9.55;5.65;;;;;;;6.78;100.00;97589.06;5056112;28;20107;-79
2021/11/07 09:21:53;;;;;;;9.07;5.43;;;;;;;6.83;100.00;97597.88;5072890;28;20067;-80
2021/11/07 09:25:06;;;;;;;9.30;5.43;;;;;;;6.87;100.00;97587.31;5057007;28;20535;-79
2021/11/07 09:27:19;;;;;;;8.15;5.20;;;;;;;6.80;100.00;97598.44;5064319;28;20129;-80
2021/11/07 09:33:11;;;;;;;7.93;4.60;;;;;;;6.97;100.00;97597.13;5072130;28;20106;-80
2021/11/07 09:35:36;;;;;;;8.23;4.47;;;;;;;8.10;100.00;97575.72;5063203;28;20102;-80
2021/11/07 09:38:22;;;;;;;8.07;3.83;;;;;;;7.44;100.00;97589.63;5070640;28;20060;-80
2021/11/07 09:41:08;;;;;;;6.80;3.78;;;;;;;7.22;100.00;97580.59;5071935;28;20052;-80
2021/11/07 09:46:54;;;;;;;6.45;3.28;;;;;;;9.09;100.00;97577.63;5072032;28;20074;-80
2021/11/07 09:49:20;;;;;;;5.40;3.20;;;;;;;9.71;100.00;97584.72;5069918;28;20110;-80
2021/11/07 09:51:56;;;;;;;5.82;2.65;;;;;;;11.00;100.00;97561.53;5072056;28;20129;-81
2021/11/07 09:54:24;;;;;;;5.38;2.75;;;;;;;11.08;100.00;97549.91;5069678;28;20087;-80
2021/11/07 09:56:53;;;;;;;4.07;2.53;;;;;;;10.76;100.00;97561.22;5094629;28;20064;-80
2021/11/07 09:59:21;;;;;;;3.38;2.33;;;;;;;11.10;100.00;97544.94;5068315;28;20056;-79
2021/11/07 10:01:51;;;;;;;3.03;2.15;;;;;;;11.05;100.00;97550.53;5070762;28;20048;-81
2021/11/07 10:04:18;;;;;;;3.03;2.20;;;;;;;10.76;100.00;97566.63;5070714;28;20049;-81
2021/11/07 10:06:58;;;;;;;3.35;2.30;;;;;;;10.58;100.00;97554.97;5069106;28;20097;-80
2021/11/07 10:09:28;;;;;;;2.88;2.10;;;;;;;11.37;100.00;97561.97;5070452;28;20048;-81
2021/11/07 10:12:08;;;;;;;2.75;2.00;;;;;;;11.01;100.00;97551.50;5071255;28;20056;-80
2021/11/07 10:14:49;;;;;;;2.70;1.88;;;;;;;10.82;100.00;97529.34;5053295;28;20052;-80
2021/11/07 10:17:43;;;;;;;3.00;1.80;;;;;;;10.42;100.00;97534.09;5052629;28;20059;-79
2021/11/07 10:20:28;;;;;;;2.75;1.65;;;;;;;10.63;100.00;97556.75;5052049;28;20495;-81
2021/11/07 10:23:03;;;;;;;8.35;1.90;;;;;;;11.24;100.00;97540.16;5067092;28;20136;-81
2021/11/07 10:26:04;;;;;;;2.92;2.13;;;;;;;10.58;100.00;97533.31;5071114;28;20497;-79
2021/11/07 10:28:58;;;;;;;2.78;1.80;;;;;;;9.34;100.00;97552.72;5070304;28;20218;-80
2021/11/07 10:31:32;;;;;;;2.67;2.00;;;;;;;9.49;100.00;97540.72;5069928;28;20060;-81
2021/11/07 10:39:44;;;;;;;2.88;1.50;;;;;;;9.96;100.00;97540.00;5070440;28;20075;-81
2021/11/07 10:42:27;;;;;;;2.03;1.20;;;;;;;9.22;100.00;97545.19;5069625;28;20080;-80
2021/11/07 10:45:09;;;;;;;2.25;1.50;;;;;;;8.58;100.00;97529.44;5050432;28;20045;-79
2021/11/07 10:48:00;;;;;;;3.30;1.80;;;;;;;8.10;100.00;97539.91;5068590;28;20110;-81
2021/11/07 10:53:15;;;;;;;2.10;1.25;;;;;;;7.67;100.00;97554.72;5068700;28;20052;-81
2021/11/07 10:55:47;;;;;;;2.38;1.50;;;;;;;7.54;100.00;97556.31;5050651;28;20106;-80
2021/11/07 10:58:15;;;;;;;2.65;1.27;;;;;;;7.46;100.00;97547.03;5050752;28;20460;-80
2021/11/07 11:00:46;;;;;;;2.30;1.40;;;;;;;7.41;100.00;97547.13;5050836;28;20079;-80
2021/11/07 11:03:16;;;;;;;2.40;1.60;;;;;;;7.46;100.00;97546.22;5068963;28;20117;-81
2021/11/07 11:05:52;;;;;;;3.03;1.50;;;;;;;7.35;100.00;97536.75;5068933;28;20048;-81
2021/11/07 11:08:29;;;;;;;2.92;1.70;;;;;;;7.16;100.00;97536.00;5068915;28;20057;-82
2021/11/07 11:11:08;;;;;;;2.13;1.33;;;;;;;7.26;100.00;97551.97;5050659;28;20080;-81
2021/11/07 11:14:41;;;;;;;3.22;1.75;;;;;;;7.34;100.00;97533.25;5067906;28;20459;-80
2021/11/07 11:19:25;;;;;;;3.08;1.55;;;;;;;7.27;100.00;97542.81;5068720;28;20048;-79
2021/11/07 11:22:03;;;;;;;2.72;1.40;;;;;;;7.28;100.00;97537.13;5069529;28;20499;-81
2021/11/07 11:25:13;;;;;;;2.58;1.40;;;;;;;7.25;100.00;97524.25;5049672;28;20048;-80
2021/11/07 11:33:06;;;;;;;2.13;1.50;;;;;;;7.60;100.00;97520.13;5068101;28;20747;-80
2021/11/07 11:35:48;;;;;;;2.22;1.50;;;;;;;7.49;100.00;97521.38;5066882;28;20385;-81
2021/11/07 11:38:26;;;;;;;3.47;1.33;;;;;;;7.53;100.00;97520.53;5069091;28;20045;-81
2021/11/07 11:43:50;;;;;;;3.03;1.58;;;;;;;7.64;100.00;97504.16;5037551;28;20114;-80
2021/11/07 11:46:26;;;;;;;1.90;1.33;;;;;;;7.83;100.00;97519.13;5068685;28;20118;-81
2021/11/07 11:54:50;;;;;;;2.53;1.40;;;;;;;7.64;100.00;97499.56;5067157;28;20048;-81
2021/11/07 12:01:14;;;;;;;3.10;1.60;;;;;;;7.79;100.00;97526.22;5067996;28;20048;-81
2021/11/07 12:06:34;;;;;;;3.85;1.95;;;;;;;7.99;100.00;97511.53;5048925;28;20052;-82
2021/11/07 12:09:50;;;;;;;3.17;2.00;;;;;;;7.95;100.00;97510.53;5030667;28;20094;-81
2021/11/07 12:12:31;;;;;;;2.42;1.70;;;;;;;7.86;100.00;97498.88;5046757;28;20727;-79
2021/11/07 12:15:26;;;;;;;4.25;2.72;;;;;;;7.82;100.00;97505.97;5075330;28;20060;-81
2021/11/07 12:18:08;;;;;;;4.40;2.35;;;;;;;7.78;100.00;97492.28;5067685;28;20413;-81
2021/11/07 12:20:38;;;;;;;3.97;2.13;;;;;;;7.99;100.00;97508.84;5078193;28;20078;-81
2021/11/07 12:23:21;;;;;;;3.72;2.35;;;;;;;7.86;100.00;97509.66;5088727;28;20044;-81
2021/11/07 12:25:50;;;;;;;4.47;2.50;;;;;;;7.76;100.00;97499.88;5073691;28;20056;-81
2021/11/07 12:28:18;;;;;;;5.18;3.45;;;;;;;7.84;100.00;97499.19;5076616;28;20052;-80
2021/11/07 12:30:44;;;;;;;4.43;2.88;;;;;;;7.75;100.00;97492.06;5091520;28;20075;-79
2021/11/07 12:33:16;;;;;;;5.10;3.13;;;;;;;7.82;100.00;97490.56;5061784;28;20056;-80
2021/11/07 12:35:49;;;;;;;5.72;3.22;;;;;;;7.64;100.00;97491.47;5056291;28;20071;-80
2021/11/07 12:41:06;;;;;;;4.47;2.60;;;;;;;7.62;100.00;97490.97;5072026;28;20044;-79
2021/11/07 12:43:38;;;;;;;4.80;3.22;;;;;;;7.64;100.00;97491.47;5074375;28;20143;-80
2021/11/07 12:46:26;;;;;;;5.97;3.80;;;;;;;7.79;100.00;97468.84;5075211;28;20102;-81
2021/11/07 12:48:55;;;;;;;5.72;3.40;;;;;;;7.71;100.00;97483.81;5074893;28;20140;-80
2021/11/07 12:51:38;;;;;;;6.40;3.80;;;;;;;7.80;100.00;97483.88;5073138;28;20441;-79
2021/11/07 12:54:13;;;;;;;5.88;3.40;;;;;;;7.78;100.00;97475.31;5075680;28;20519;-78
2021/11/07 12:56:45;;;;;;;5.28;3.42;;;;;;;7.80;100.00;97471.22;5079326;28;20061;-81
2021/11/07 12:59:26;;;;;;;5.28;3.47;;;;;;;7.83;100.00;97449.06;5076468;28;20060;-79
2021/11/07 13:02:09;;;;;;;5.85;3.67;;;;;;;7.89;100.00;97465.94;5061765;28;20048;-81
2021/11/07 13:05:03;;;;;;;5.22;3.47;;;;;;;7.89;100.00;97453.25;5075248;28;20771;-81
2021/11/07 13:07:48;;;;;;;6.00;3.78;;;;;;;7.92;100.00;97458.03;5074791;28;20053;-82
2021/11/07 13:10:23;;;;;;;5.30;3.35;;;;;;;7.87;100.00;97450.03;5057430;28;20063;-81
2021/11/07 13:12:54;;;;;;;5.75;3.42;;;;;;;7.80;100.00;97444.28;5074073;28;20084;-81
2021/11/07 13:27:11;;;;;;;6.03;3.50;;;;;;;8.06;100.00;97437.25;5090844;28;20048;-80
2021/11/07 13:32:18;;;;;;;6.75;3.50;;;;;;;8.09;100.00;97452.81;5073915;28;20052;-81
2021/11/07 13:35:09;;;;;;;5.25;2.78;;;;;;;8.10;100.00;97450.94;5073487;28;20134;-81
2021/11/07 13:38:02;;;;;;;4.90;3.40;;;;;;;8.10;100.00;97457.09;5088433;28;20255;-81
2021/11/07 13:40:37;;;;;;;6.90;3.10;;;;;;;8.07;100.00;97441.53;5059242;28;20064;-81